sensor_id;sensor_type;location;lat;lon;timestamp;P1;durP1;ratioP1;P2;durP2;ratioP2
60306;SDS011;46155;52.364;6.580;2023-04-15T03:02:49;14.10;;;12.77;;
60306;SDS011;46155;52.364;6.580;2023-04-15T03:05:20;14.67;;;13.43;;
60306;SDS011;46155;52.364;6.580;2023-04-15T03:07:45;14.90;;;13.43;;
60306;SDS011;46155;52.364;6.580;2023-04-15T03:10:10;17.07;;;15.07;;
60306;SDS011;46155;52.364;6.580;2023-04-15T03:12:36;17.50;;;15.83;;
60306;SDS011;46155;52.364;6.580;2023-04-15T03:15:01;17.80;;;16.20;;
60306;SDS011;46155;52.364;6.580;2023-04-15T03:17:27;15.73;;;14.33;;
60306;SDS011;46155;52.364;6.580;2023-04-15T03:19:52;17.33;;;15.83;;
60306;SDS011;46155;52.364;6.580;2023-04-15T03:22:17;17.33;;;15.70;;
60306;SDS011;46155;52.364;6.580;2023-04-15T03:24:43;17.33;;;15.70;;
60306;SDS011;46155;52.364;6.580;2023-04-15T03:27:08;17.80;;;15.23;;
60306;SDS011;46155;52.364;6.580;2023-04-15T03:29:34;17.13;;;15.43;;
60306;SDS011;46155;52.364;6.580;2023-04-15T03:31:59;18.13;;;16.43;;
60306;SDS011;46155;52.364;6.580;2023-04-15T03:34:25;16.63;;;15.03;;
60306;SDS011;46155;52.364;6.580;2023-04-15T03:36:50;18.70;;;16.90;;
60306;SDS011;46155;52.364;6.580;2023-04-15T03:39:16;16.93;;;15.30;;
60306;SDS011;46155;52.364;6.580;2023-04-15T03:41:41;16.23;;;14.70;;
60306;SDS011;46155;52.364;6.580;2023-04-15T03:44:06;19.03;;;16.10;;
60306;SDS011;46155;52.364;6.580;2023-04-15T03:46:32;18.37;;;16.53;;
60306;SDS011;46155;52.364;6.580;2023-04-15T03:48:57;16.90;;;15.27;;
60306;SDS011;46155;52.364;6.580;2023-04-15T03:51:23;17.07;;;15.27;;
60306;SDS011;46155;52.364;6.580;2023-04-15T03:53:48;17.77;;;16.07;;
60306;SDS011;46155;52.364;6.580;2023-04-15T03:56:13;17.97;;;16.27;;
60306;SDS011;46155;52.364;6.580;2023-04-15T03:58:38;18.93;;;17.17;;
60306;SDS011;46155;52.364;6.580;2023-04-15T04:01:04;18.57;;;17.03;;
60306;SDS011;46155;52.364;6.580;2023-04-15T04:03:29;19.03;;;17.00;;
60306;SDS011;46155;52.364;6.580;2023-04-15T04:05:55;20.03;;;16.80;;
60306;SDS011;46155;52.364;6.580;2023-04-15T04:08:20;18.63;;;16.03;;
60306;SDS011;46155;52.364;6.580;2023-04-15T04:10:46;18.43;;;16.50;;
60306;SDS011;46155;52.364;6.580;2023-04-15T04:13:11;17.97;;;16.07;;
60306;SDS011;46155;52.364;6.580;2023-04-15T04:15:36;19.67;;;17.00;;
60306;SDS011;46155;52.364;6.580;2023-04-15T04:18:02;18.50;;;16.70;;
60306;SDS011;46155;52.364;6.580;2023-04-15T04:20:27;20.00;;;17.60;;
60306;SDS011;46155;52.364;6.580;2023-04-15T04:22:53;18.93;;;17.17;;
60306;SDS011;46155;52.364;6.580;2023-04-15T04:25:18;18.30;;;16.47;;
60306;SDS011;46155;52.364;6.580;2023-04-15T04:27:43;18.37;;;16.60;;
60306;SDS011;46155;52.364;6.580;2023-04-15T04:30:09;18.40;;;16.43;;
60306;SDS011;46155;52.364;6.580;2023-04-15T04:32:35;18.50;;;16.87;;
60306;SDS011;46155;52.364;6.580;2023-04-15T04:35:00;19.90;;;18.00;;
60306;SDS011;46155;52.364;6.580;2023-04-15T04:37:26;20.83;;;18.77;;
60306;SDS011;46155;52.364;6.580;2023-04-15T04:39:51;19.40;;;17.70;;
60306;SDS011;46155;52.364;6.580;2023-04-15T04:42:16;18.67;;;16.63;;
60306;SDS011;46155;52.364;6.580;2023-04-15T04:44:41;21.70;;;15.70;;
60306;SDS011;46155;52.364;6.580;2023-04-15T04:47:07;18.13;;;15.67;;
60306;SDS011;46155;52.364;6.580;2023-04-15T04:49:32;16.50;;;14.10;;
60306;SDS011;46155;52.364;6.580;2023-04-15T04:51:57;15.83;;;14.17;;
60306;SDS011;46155;52.364;6.580;2023-04-15T04:54:24;18.57;;;14.17;;
60306;SDS011;46155;52.364;6.580;2023-04-15T04:56:50;15.30;;;13.70;;
60306;SDS011;46155;52.364;6.580;2023-04-15T04:59:15;14.47;;;13.03;;
60306;SDS011;46155;52.364;6.580;2023-04-15T05:01:40;17.03;;;14.30;;
60306;SDS011;46155;52.364;6.580;2023-04-15T05:04:06;16.63;;;13.93;;
60306;SDS011;46155;52.364;6.580;2023-04-15T05:06:32;15.93;;;14.37;;
60306;SDS011;46155;52.364;6.580;2023-04-15T05:08:57;26.63;;;13.43;;
60306;SDS011;46155;52.364;6.580;2023-04-15T05:11:22;16.77;;;15.03;;
60306;SDS011;46155;52.364;6.580;2023-04-15T05:13:48;17.33;;;15.57;;
60306;SDS011;46155;52.364;6.580;2023-04-15T05:16:13;17.60;;;14.53;;
60306;SDS011;46155;52.364;6.580;2023-04-15T05:18:38;18.37;;;15.20;;
60306;SDS011;46155;52.364;6.580;2023-04-15T05:21:04;19.60;;;17.73;;
60306;SDS011;46155;52.364;6.580;2023-04-15T05:23:29;20.20;;;15.63;;
60306;SDS011;46155;52.364;6.580;2023-04-15T05:25:55;28.40;;;18.10;;
60306;SDS011;46155;52.364;6.580;2023-04-15T05:28:20;22.00;;;19.70;;
60306;SDS011;46155;52.364;6.580;2023-04-15T05:30:45;25.63;;;19.53;;
60306;SDS011;46155;52.364;6.580;2023-04-15T05:33:11;23.13;;;20.23;;
60306;SDS011;46155;52.364;6.580;2023-04-15T05:35:36;22.00;;;19.37;;
60306;SDS011;46155;52.364;6.580;2023-04-15T05:38:01;22.07;;;19.80;;
60306;SDS011;46155;52.364;6.580;2023-04-15T05:40:27;23.73;;;18.63;;
60306;SDS011;46155;52.364;6.580;2023-04-15T05:42:53;25.80;;;20.00;;
60306;SDS011;46155;52.364;6.580;2023-04-15T05:45:19;30.77;;;21.67;;
60306;SDS011;46155;52.364;6.580;2023-04-15T05:47:45;26.37;;;21.90;;
60306;SDS011;46155;52.364;6.580;2023-04-15T05:50:10;27.07;;;22.03;;
60306;SDS011;46155;52.364;6.580;2023-04-15T05:52:36;31.03;;;22.20;;
60306;SDS011;46155;52.364;6.580;2023-04-15T05:55:01;26.97;;;23.77;;
60306;SDS011;46155;52.364;6.580;2023-04-15T05:57:26;27.30;;;24.37;;
60306;SDS011;46155;52.364;6.580;2023-04-15T05:59:52;27.40;;;22.80;;
60306;SDS011;46155;52.364;6.580;2023-04-15T06:02:17;26.57;;;23.10;;
60306;SDS011;46155;52.364;6.580;2023-04-15T06:04:43;32.80;;;25.93;;
60306;SDS011;46155;52.364;6.580;2023-04-15T06:07:08;32.97;;;23.30;;
60306;SDS011;46155;52.364;6.580;2023-04-15T06:09:34;29.00;;;24.60;;
60306;SDS011;46155;52.364;6.580;2023-04-15T06:12:00;31.80;;;24.37;;
60306;SDS011;46155;52.364;6.580;2023-04-15T06:14:26;30.80;;;25.77;;
60306;SDS011;46155;52.364;6.580;2023-04-15T06:16:51;27.30;;;22.77;;
60306;SDS011;46155;52.364;6.580;2023-04-15T06:19:16;29.23;;;23.23;;
60306;SDS011;46155;52.364;6.580;2023-04-15T06:21:42;27.77;;;22.57;;
60306;SDS011;46155;52.364;6.580;2023-04-15T06:24:08;26.83;;;20.43;;
60306;SDS011;46155;52.364;6.580;2023-04-15T06:26:33;27.07;;;20.83;;
60306;SDS011;46155;52.364;6.580;2023-04-15T06:28:58;23.23;;;20.40;;
60306;SDS011;46155;52.364;6.580;2023-04-15T06:31:24;23.23;;;20.33;;
60306;SDS011;46155;52.364;6.580;2023-04-15T06:33:50;25.13;;;22.10;;
60306;SDS011;46155;52.364;6.580;2023-04-15T06:36:15;24.53;;;19.80;;
60306;SDS011;46155;52.364;6.580;2023-04-15T06:38:40;24.20;;;21.67;;
60306;SDS011;46155;52.364;6.580;2023-04-15T06:41:06;25.23;;;19.83;;
60306;SDS011;46155;52.364;6.580;2023-04-15T06:43:31;23.10;;;18.70;;
60306;SDS011;46155;52.364;6.580;2023-04-15T06:45:57;27.17;;;19.80;;
60306;SDS011;46155;52.364;6.580;2023-04-15T06:48:22;26.93;;;19.77;;
60306;SDS011;46155;52.364;6.580;2023-04-15T06:50:48;28.63;;;18.37;;
60306;SDS011;46155;52.364;6.580;2023-04-15T06:53:13;25.47;;;18.83;;
60306;SDS011;46155;52.364;6.580;2023-04-15T06:55:39;27.23;;;19.70;;
60306;SDS011;46155;52.364;6.580;2023-04-15T06:58:05;19.33;;;17.23;;
60306;SDS011;46155;52.364;6.580;2023-04-15T07:00:31;21.70;;;18.27;;
60306;SDS011;46155;52.364;6.580;2023-04-15T07:02:57;24.67;;;18.60;;
60306;SDS011;46155;52.364;6.580;2023-04-15T07:05:23;23.97;;;18.97;;
60306;SDS011;46155;52.364;6.580;2023-04-15T07:07:49;23.20;;;18.73;;
60306;SDS011;46155;52.364;6.580;2023-04-15T07:10:15;27.43;;;20.17;;
60306;SDS011;46155;52.364;6.580;2023-04-15T07:12:40;22.77;;;20.47;;
60306;SDS011;46155;52.364;6.580;2023-04-15T07:15:06;24.40;;;19.63;;
60306;SDS011;46155;52.364;6.580;2023-04-15T07:17:31;24.03;;;21.67;;
60306;SDS011;46155;52.364;6.580;2023-04-15T07:19:57;27.27;;;21.87;;
60306;SDS011;46155;52.364;6.580;2023-04-15T07:22:22;20.60;;;18.13;;
60306;SDS011;46155;52.364;6.580;2023-04-15T07:24:48;24.93;;;20.10;;
60306;SDS011;46155;52.364;6.580;2023-04-15T07:27:13;21.40;;;17.60;;
60306;SDS011;46155;52.364;6.580;2023-04-15T07:29:38;19.27;;;17.27;;
60306;SDS011;46155;52.364;6.580;2023-04-15T07:32:04;21.80;;;17.43;;
60306;SDS011;46155;52.364;6.580;2023-04-15T07:34:29;24.70;;;18.73;;
60306;SDS011;46155;52.364;6.580;2023-04-15T07:36:55;21.93;;;17.97;;
60306;SDS011;46155;52.364;6.580;2023-04-15T07:39:20;22.30;;;18.30;;
60306;SDS011;46155;52.364;6.580;2023-04-15T07:41:46;23.03;;;19.60;;
60306;SDS011;46155;52.364;6.580;2023-04-15T07:44:12;22.00;;;19.73;;
60306;SDS011;46155;52.364;6.580;2023-04-15T07:46:38;23.73;;;17.57;;
60306;SDS011;46155;52.364;6.580;2023-04-15T07:49:03;24.40;;;19.13;;
60306;SDS011;46155;52.364;6.580;2023-04-15T07:51:28;23.13;;;18.20;;
60306;SDS011;46155;52.364;6.580;2023-04-15T07:53:54;21.07;;;18.70;;
60306;SDS011;46155;52.364;6.580;2023-04-15T07:56:20;23.67;;;21.13;;
60306;SDS011;46155;52.364;6.580;2023-04-15T07:58:46;24.60;;;18.20;;
60306;SDS011;46155;52.364;6.580;2023-04-15T08:01:11;25.40;;;21.43;;
60306;SDS011;46155;52.364;6.580;2023-04-15T08:03:37;24.37;;;18.20;;
60306;SDS011;46155;52.364;6.580;2023-04-15T08:06:03;24.50;;;17.30;;
60306;SDS011;46155;52.364;6.580;2023-04-15T08:08:28;21.37;;;19.10;;
60306;SDS011;46155;52.364;6.580;2023-04-15T08:10:53;23.97;;;19.23;;
60306;SDS011;46155;52.364;6.580;2023-04-15T08:13:19;26.47;;;19.70;;
60306;SDS011;46155;52.364;6.580;2023-04-15T08:15:44;25.07;;;18.80;;
60306;SDS011;46155;52.364;6.580;2023-04-15T08:18:10;22.57;;;18.40;;
60306;SDS011;46155;52.364;6.580;2023-04-15T08:20:36;24.70;;;18.00;;
60306;SDS011;46155;52.364;6.580;2023-04-15T08:23:01;17.37;;;15.57;;
60306;SDS011;46155;52.364;6.580;2023-04-15T08:25:27;19.07;;;16.37;;
60306;SDS011;46155;52.364;6.580;2023-04-15T08:27:56;21.23;;;15.97;;
60306;SDS011;46155;52.364;6.580;2023-04-15T08:30:21;21.27;;;15.57;;
60306;SDS011;46155;52.364;6.580;2023-04-15T08:32:48;16.43;;;14.17;;
60306;SDS011;46155;52.364;6.580;2023-04-15T08:35:14;19.43;;;14.80;;
60306;SDS011;46155;52.364;6.580;2023-04-15T08:37:39;14.83;;;13.13;;
60306;SDS011;46155;52.364;6.580;2023-04-15T08:40:05;16.10;;;13.43;;
60306;SDS011;46155;52.364;6.580;2023-04-15T08:42:35;15.73;;;13.27;;
60306;SDS011;46155;52.364;6.580;2023-04-15T08:45:05;13.63;;;12.37;;
60306;SDS011;46155;52.364;6.580;2023-04-15T08:47:34;16.80;;;12.53;;
60306;SDS011;46155;52.364;6.580;2023-04-15T08:50:02;13.53;;;11.40;;
60306;SDS011;46155;52.364;6.580;2023-04-15T08:52:29;15.20;;;12.93;;
60306;SDS011;46155;52.364;6.580;2023-04-15T08:54:55;14.80;;;11.17;;
60306;SDS011;46155;52.364;6.580;2023-04-15T08:57:25;12.77;;;10.80;;
60306;SDS011;46155;52.364;6.580;2023-04-15T08:59:52;13.93;;;11.23;;
60306;SDS011;46155;52.364;6.580;2023-04-15T09:02:20;17.27;;;10.87;;
60306;SDS011;46155;52.364;6.580;2023-04-15T09:04:46;14.13;;;11.03;;
60306;SDS011;46155;52.364;6.580;2023-04-15T09:07:11;11.77;;;10.57;;
60306;SDS011;46155;52.364;6.580;2023-04-15T09:09:36;15.30;;;9.20;;
60306;SDS011;46155;52.364;6.580;2023-04-15T09:12:04;17.43;;;12.53;;
60306;SDS011;46155;52.364;6.580;2023-04-15T09:14:29;12.20;;;10.93;;
60306;SDS011;46155;52.364;6.580;2023-04-15T09:16:57;12.47;;;10.63;;
60306;SDS011;46155;52.364;6.580;2023-04-15T09:19:27;11.23;;;10.03;;
60306;SDS011;46155;52.364;6.580;2023-04-15T09:21:53;11.90;;;10.80;;
60306;SDS011;46155;52.364;6.580;2023-04-15T09:24:21;11.80;;;10.03;;
60306;SDS011;46155;52.364;6.580;2023-04-15T09:26:46;12.47;;;10.57;;
60306;SDS011;46155;52.364;6.580;2023-04-15T09:29:15;11.47;;;9.87;;
60306;SDS011;46155;52.364;6.580;2023-04-15T09:31:42;11.20;;;9.60;;
60306;SDS011;46155;52.364;6.580;2023-04-15T09:34:08;10.40;;;9.50;;
60306;SDS011;46155;52.364;6.580;2023-04-15T09:39:11;10.90;;;9.90;;
60306;SDS011;46155;52.364;6.580;2023-04-15T09:41:36;10.20;;;9.20;;
60306;SDS011;46155;52.364;6.580;2023-04-15T09:44:01;11.17;;;8.60;;
60306;SDS011;46155;52.364;6.580;2023-04-15T09:46:43;9.97;;;8.63;;
60306;SDS011;46155;52.364;6.580;2023-04-15T09:49:09;9.93;;;8.93;;
60306;SDS011;46155;52.364;6.580;2023-04-15T09:51:36;10.20;;;9.20;;
60306;SDS011;46155;52.364;6.580;2023-04-15T09:54:02;12.60;;;8.43;;
60306;SDS011;46155;52.364;6.580;2023-04-15T09:56:35;9.50;;;8.60;;
60306;SDS011;46155;52.364;6.580;2023-04-15T09:59:02;9.20;;;7.77;;
60306;SDS011;46155;52.364;6.580;2023-04-15T10:01:29;8.40;;;7.57;;
60306;SDS011;46155;52.364;6.580;2023-04-15T10:03:55;9.77;;;8.60;;
60306;SDS011;46155;52.364;6.580;2023-04-15T10:06:22;8.97;;;8.07;;
60306;SDS011;46155;52.364;6.580;2023-04-15T10:08:49;8.83;;;7.90;;
60306;SDS011;46155;52.364;6.580;2023-04-15T10:11:16;10.30;;;7.97;;
60306;SDS011;46155;52.364;6.580;2023-04-15T10:13:42;8.37;;;7.67;;
60306;SDS011;46155;52.364;6.580;2023-04-15T10:16:15;9.20;;;8.40;;
60306;SDS011;46155;52.364;6.580;2023-04-15T10:18:44;8.70;;;7.80;;
60306;SDS011;46155;52.364;6.580;2023-04-15T10:21:10;9.60;;;8.70;;
60306;SDS011;46155;52.364;6.580;2023-04-15T10:23:38;7.97;;;7.37;;
60306;SDS011;46155;52.364;6.580;2023-04-15T10:26:04;8.97;;;7.90;;
60306;SDS011;46155;52.364;6.580;2023-04-15T10:28:30;9.30;;;8.50;;
60306;SDS011;46155;52.364;6.580;2023-04-15T10:30:56;8.63;;;7.87;;
60306;SDS011;46155;52.364;6.580;2023-04-15T10:33:22;9.00;;;8.30;;
60306;SDS011;46155;52.364;6.580;2023-04-15T10:35:49;8.17;;;7.37;;
60306;SDS011;46155;52.364;6.580;2023-04-15T10:41:19;8.60;;;7.90;;
60306;SDS011;46155;52.364;6.580;2023-04-15T10:43:53;7.57;;;6.87;;
60306;SDS011;46155;52.364;6.580;2023-04-15T10:49:14;8.20;;;7.10;;
60306;SDS011;46155;52.364;6.580;2023-04-15T10:51:50;7.60;;;7.07;;
60306;SDS011;46155;52.364;6.580;2023-04-15T10:56:49;14.27;;;7.60;;
60306;SDS011;46155;52.364;6.580;2023-04-15T10:59:28;8.17;;;7.53;;
60306;SDS011;46155;52.364;6.580;2023-04-15T11:02:00;8.17;;;7.57;;
60306;SDS011;46155;52.364;6.580;2023-04-15T11:12:41;9.10;;;6.47;;
60306;SDS011;46155;52.364;6.580;2023-04-15T11:17:57;9.17;;;6.83;;
60306;SDS011;46155;52.364;6.580;2023-04-15T11:20:32;7.63;;;6.93;;
60306;SDS011;46155;52.364;6.580;2023-04-15T11:22:57;8.07;;;6.93;;
60306;SDS011;46155;52.364;6.580;2023-04-15T11:25:30;6.50;;;6.10;;
60306;SDS011;46155;52.364;6.580;2023-04-15T11:27:57;6.90;;;6.50;;
60306;SDS011;46155;52.364;6.580;2023-04-15T11:30:24;6.90;;;6.27;;
60306;SDS011;46155;52.364;6.580;2023-04-15T11:32:52;7.70;;;7.17;;
60306;SDS011;46155;52.364;6.580;2023-04-15T11:35:19;6.17;;;5.60;;
60306;SDS011;46155;52.364;6.580;2023-04-15T11:37:45;8.20;;;7.40;;
60306;SDS011;46155;52.364;6.580;2023-04-15T11:40:11;7.07;;;6.40;;
60306;SDS011;46155;52.364;6.580;2023-04-15T11:42:37;7.57;;;7.07;;
60306;SDS011;46155;52.364;6.580;2023-04-15T11:45:09;7.73;;;6.93;;
60306;SDS011;46155;52.364;6.580;2023-04-15T11:47:39;7.47;;;6.97;;
60306;SDS011;46155;52.364;6.580;2023-04-15T11:52:41;6.60;;;6.20;;
60306;SDS011;46155;52.364;6.580;2023-04-15T11:55:16;6.13;;;5.67;;
60306;SDS011;46155;52.364;6.580;2023-04-15T11:57:41;7.03;;;6.33;;
60306;SDS011;46155;52.364;6.580;2023-04-15T12:00:07;6.77;;;6.27;;
60306;SDS011;46155;52.364;6.580;2023-04-15T12:02:35;10.00;;;7.23;;
60306;SDS011;46155;52.364;6.580;2023-04-15T12:05:04;6.43;;;5.83;;
60306;SDS011;46155;52.364;6.580;2023-04-15T12:07:30;6.77;;;6.17;;
60306;SDS011;46155;52.364;6.580;2023-04-15T12:09:56;10.30;;;6.80;;
60306;SDS011;46155;52.364;6.580;2023-04-15T12:12:25;8.13;;;6.70;;
60306;SDS011;46155;52.364;6.580;2023-04-15T12:14:57;7.30;;;6.70;;
60306;SDS011;46155;52.364;6.580;2023-04-15T12:17:24;6.27;;;5.87;;
60306;SDS011;46155;52.364;6.580;2023-04-15T12:19:54;7.67;;;6.47;;
60306;SDS011;46155;52.364;6.580;2023-04-15T12:22:20;6.67;;;6.27;;
60306;SDS011;46155;52.364;6.580;2023-04-15T12:24:46;7.70;;;5.90;;
60306;SDS011;46155;52.364;6.580;2023-04-15T12:27:13;6.33;;;5.93;;
60306;SDS011;46155;52.364;6.580;2023-04-15T12:29:41;7.47;;;6.23;;
60306;SDS011;46155;52.364;6.580;2023-04-15T12:32:16;6.13;;;5.63;;
60306;SDS011;46155;52.364;6.580;2023-04-15T12:34:52;6.20;;;5.67;;
60306;SDS011;46155;52.364;6.580;2023-04-15T12:37:21;5.97;;;5.67;;
60306;SDS011;46155;52.364;6.580;2023-04-15T12:39:47;6.10;;;5.53;;
60306;SDS011;46155;52.364;6.580;2023-04-15T12:42:14;6.87;;;5.27;;
60306;SDS011;46155;52.364;6.580;2023-04-15T12:44:40;7.20;;;6.60;;
60306;SDS011;46155;52.364;6.580;2023-04-15T12:47:07;5.53;;;5.13;;
60306;SDS011;46155;52.364;6.580;2023-04-15T12:49:33;7.03;;;6.53;;
60306;SDS011;46155;52.364;6.580;2023-04-15T12:51:59;5.90;;;5.30;;
60306;SDS011;46155;52.364;6.580;2023-04-15T12:54:25;5.70;;;5.30;;
60306;SDS011;46155;52.364;6.580;2023-04-15T12:56:51;6.57;;;5.97;;
60306;SDS011;46155;52.364;6.580;2023-04-15T12:59:18;6.50;;;6.10;;
60306;SDS011;46155;52.364;6.580;2023-04-15T13:01:44;6.97;;;6.53;;
60306;SDS011;46155;52.364;6.580;2023-04-15T13:04:11;7.13;;;6.27;;
60306;SDS011;46155;52.364;6.580;2023-04-15T13:06:36;9.57;;;7.07;;
60306;SDS011;46155;52.364;6.580;2023-04-15T13:09:02;6.83;;;6.33;;
60306;SDS011;46155;52.364;6.580;2023-04-15T13:11:29;7.03;;;6.30;;
60306;SDS011;46155;52.364;6.580;2023-04-15T13:13:55;6.93;;;6.40;;
60306;SDS011;46155;52.364;6.580;2023-04-15T13:16:22;7.03;;;6.53;;
60306;SDS011;46155;52.364;6.580;2023-04-15T13:18:48;7.27;;;6.77;;
60306;SDS011;46155;52.364;6.580;2023-04-15T13:21:14;14.77;;;6.73;;
60306;SDS011;46155;52.364;6.580;2023-04-15T13:23:40;7.27;;;6.60;;
60306;SDS011;46155;52.364;6.580;2023-04-15T13:26:06;7.73;;;6.93;;
60306;SDS011;46155;52.364;6.580;2023-04-15T13:28:32;13.67;;;7.30;;
60306;SDS011;46155;52.364;6.580;2023-04-15T13:30:57;11.57;;;7.40;;
60306;SDS011;46155;52.364;6.580;2023-04-15T13:33:24;8.67;;;6.97;;
60306;SDS011;46155;52.364;6.580;2023-04-15T13:35:49;7.43;;;6.67;;
60306;SDS011;46155;52.364;6.580;2023-04-15T13:38:15;9.53;;;6.87;;
60306;SDS011;46155;52.364;6.580;2023-04-15T13:40:40;7.90;;;7.33;;
60306;SDS011;46155;52.364;6.580;2023-04-15T13:43:05;8.33;;;7.20;;
60306;SDS011;46155;52.364;6.580;2023-04-15T13:45:31;8.80;;;8.00;;
60306;SDS011;46155;52.364;6.580;2023-04-15T13:47:57;13.10;;;7.77;;
60306;SDS011;46155;52.364;6.580;2023-04-15T13:50:22;8.10;;;7.30;;
60306;SDS011;46155;52.364;6.580;2023-04-15T13:52:47;7.93;;;7.27;;
60306;SDS011;46155;52.364;6.580;2023-04-15T13:55:13;9.60;;;6.30;;
60306;SDS011;46155;52.364;6.580;2023-04-15T13:57:38;7.13;;;6.53;;
60306;SDS011;46155;52.364;6.580;2023-04-15T14:00:04;6.60;;;6.10;;
60306;SDS011;46155;52.364;6.580;2023-04-15T14:02:30;12.97;;;6.47;;
60306;SDS011;46155;52.364;6.580;2023-04-15T14:04:55;6.03;;;5.67;;
60306;SDS011;46155;52.364;6.580;2023-04-15T14:07:21;6.80;;;6.20;;
60306;SDS011;46155;52.364;6.580;2023-04-15T14:09:46;7.10;;;6.37;;
60306;SDS011;46155;52.364;6.580;2023-04-15T14:12:12;7.77;;;6.10;;
60306;SDS011;46155;52.364;6.580;2023-04-15T14:14:37;7.23;;;5.93;;
60306;SDS011;46155;52.364;6.580;2023-04-15T14:17:03;8.17;;;7.50;;
60306;SDS011;46155;52.364;6.580;2023-04-15T14:19:29;6.13;;;5.73;;
60306;SDS011;46155;52.364;6.580;2023-04-15T14:21:55;6.13;;;5.67;;
60306;SDS011;46155;52.364;6.580;2023-04-15T14:24:20;6.87;;;6.37;;
60306;SDS011;46155;52.364;6.580;2023-04-15T14:26:45;8.47;;;6.00;;
60306;SDS011;46155;52.364;6.580;2023-04-15T14:29:11;8.50;;;6.50;;
60306;SDS011;46155;52.364;6.580;2023-04-15T14:31:36;10.87;;;7.00;;
60306;SDS011;46155;52.364;6.580;2023-04-15T14:34:02;7.87;;;6.47;;
60306;SDS011;46155;52.364;6.580;2023-04-15T14:36:27;7.40;;;6.80;;
60306;SDS011;46155;52.364;6.580;2023-04-15T14:38:52;12.27;;;7.37;;
60306;SDS011;46155;52.364;6.580;2023-04-15T14:41:18;10.70;;;7.73;;
60306;SDS011;46155;52.364;6.580;2023-04-15T14:43:43;10.63;;;7.50;;
60306;SDS011;46155;52.364;6.580;2023-04-15T14:46:09;9.50;;;8.50;;
60306;SDS011;46155;52.364;6.580;2023-04-15T14:48:35;11.70;;;8.33;;
60306;SDS011;46155;52.364;6.580;2023-04-15T14:51:00;8.87;;;7.23;;
60306;SDS011;46155;52.364;6.580;2023-04-15T14:53:26;14.70;;;7.13;;
60306;SDS011;46155;52.364;6.580;2023-04-15T14:55:51;7.47;;;6.93;;
60306;SDS011;46155;52.364;6.580;2023-04-15T14:58:16;7.83;;;7.27;;
60306;SDS011;46155;52.364;6.580;2023-04-15T15:00:42;7.70;;;6.87;;
60306;SDS011;46155;52.364;6.580;2023-04-15T15:03:08;7.40;;;6.80;;
60306;SDS011;46155;52.364;6.580;2023-04-15T15:05:42;6.87;;;6.37;;
60306;SDS011;46155;52.364;6.580;2023-04-15T15:08:10;6.80;;;6.10;;
60306;SDS011;46155;52.364;6.580;2023-04-15T15:10:36;8.83;;;6.53;;
60306;SDS011;46155;52.364;6.580;2023-04-15T15:13:05;12.77;;;6.70;;
60306;SDS011;46155;52.364;6.580;2023-04-15T15:15:32;7.50;;;6.90;;
60306;SDS011;46155;52.364;6.580;2023-04-15T15:17:58;9.13;;;6.83;;
60306;SDS011;46155;52.364;6.580;2023-04-15T15:20:23;11.97;;;6.57;;
60306;SDS011;46155;52.364;6.580;2023-04-15T15:22:49;10.23;;;6.17;;
60306;SDS011;46155;52.364;6.580;2023-04-15T15:25:15;7.50;;;6.57;;
60306;SDS011;46155;52.364;6.580;2023-04-15T15:27:41;7.60;;;6.60;;
60306;SDS011;46155;52.364;6.580;2023-04-15T15:30:06;7.23;;;6.63;;
60306;SDS011;46155;52.364;6.580;2023-04-15T15:32:32;7.57;;;6.97;;
60306;SDS011;46155;52.364;6.580;2023-04-15T15:34:58;7.57;;;7.07;;
60306;SDS011;46155;52.364;6.580;2023-04-15T15:37:23;7.67;;;7.17;;
60306;SDS011;46155;52.364;6.580;2023-04-15T15:39:48;9.27;;;7.30;;
60306;SDS011;46155;52.364;6.580;2023-04-15T15:42:17;9.83;;;8.27;;
60306;SDS011;46155;52.364;6.580;2023-04-15T15:44:43;9.77;;;8.20;;
60306;SDS011;46155;52.364;6.580;2023-04-15T15:47:09;9.00;;;8.30;;
60306;SDS011;46155;52.364;6.580;2023-04-15T15:49:34;10.90;;;10.03;;
60306;SDS011;46155;52.364;6.580;2023-04-15T15:52:00;10.27;;;9.23;;
60306;SDS011;46155;52.364;6.580;2023-04-15T15:54:25;11.60;;;10.63;;
60306;SDS011;46155;52.364;6.580;2023-04-15T15:56:50;10.23;;;9.23;;
60306;SDS011;46155;52.364;6.580;2023-04-15T15:59:15;10.23;;;8.53;;
60306;SDS011;46155;52.364;6.580;2023-04-15T16:01:41;17.40;;;10.73;;
60306;SDS011;46155;52.364;6.580;2023-04-15T16:04:07;11.47;;;10.57;;
60306;SDS011;46155;52.364;6.580;2023-04-15T16:06:32;11.57;;;10.17;;
60306;SDS011;46155;52.364;6.580;2023-04-15T16:08:57;14.07;;;9.90;;
60306;SDS011;46155;52.364;6.580;2023-04-15T16:11:22;10.60;;;9.73;;
60306;SDS011;46155;52.364;6.580;2023-04-15T16:13:48;10.93;;;10.23;;
60306;SDS011;46155;52.364;6.580;2023-04-15T16:16:13;11.27;;;10.30;;
60306;SDS011;46155;52.364;6.580;2023-04-15T16:18:39;10.43;;;9.40;;
60306;SDS011;46155;52.364;6.580;2023-04-15T16:21:04;9.63;;;8.70;;
60306;SDS011;46155;52.364;6.580;2023-04-15T16:23:30;16.33;;;9.77;;
60306;SDS011;46155;52.364;6.580;2023-04-15T16:25:55;11.47;;;9.07;;
60306;SDS011;46155;52.364;6.580;2023-04-15T16:28:21;9.90;;;9.23;;
60306;SDS011;46155;52.364;6.580;2023-04-15T16:30:47;10.27;;;9.23;;
60306;SDS011;46155;52.364;6.580;2023-04-15T16:33:12;9.13;;;8.37;;
60306;SDS011;46155;52.364;6.580;2023-04-15T16:35:37;9.53;;;8.93;;
60306;SDS011;46155;52.364;6.580;2023-04-15T16:38:03;11.67;;;9.93;;
60306;SDS011;46155;52.364;6.580;2023-04-15T16:40:28;10.73;;;9.70;;
60306;SDS011;46155;52.364;6.580;2023-04-15T16:42:54;9.60;;;8.90;;
60306;SDS011;46155;52.364;6.580;2023-04-15T16:45:19;13.93;;;9.63;;
60306;SDS011;46155;52.364;6.580;2023-04-15T16:47:45;9.00;;;8.40;;
60306;SDS011;46155;52.364;6.580;2023-04-15T16:50:10;11.97;;;10.57;;
60306;SDS011;46155;52.364;6.580;2023-04-15T16:52:35;12.00;;;10.37;;
60306;SDS011;46155;52.364;6.580;2023-04-15T16:55:01;14.53;;;11.77;;
60306;SDS011;46155;52.364;6.580;2023-04-15T16:57:27;13.07;;;10.03;;
60306;SDS011;46155;52.364;6.580;2023-04-15T16:59:52;17.00;;;12.20;;
60306;SDS011;46155;52.364;6.580;2023-04-15T17:02:18;11.33;;;10.47;;
60306;SDS011;46155;52.364;6.580;2023-04-15T17:04:43;12.90;;;11.83;;
60306;SDS011;46155;52.364;6.580;2023-04-15T17:07:08;13.00;;;11.87;;
60306;SDS011;46155;52.364;6.580;2023-04-15T17:09:34;12.13;;;11.33;;
60306;SDS011;46155;52.364;6.580;2023-04-15T17:12:00;27.13;;;10.63;;
60306;SDS011;46155;52.364;6.580;2023-04-15T17:14:28;19.87;;;11.23;;
60306;SDS011;46155;52.364;6.580;2023-04-15T17:16:54;11.63;;;10.17;;
60306;SDS011;46155;52.364;6.580;2023-04-15T17:19:20;11.90;;;10.97;;
60306;SDS011;46155;52.364;6.580;2023-04-15T17:21:45;14.93;;;10.50;;
60306;SDS011;46155;52.364;6.580;2023-04-15T17:24:10;13.40;;;10.50;;
60306;SDS011;46155;52.364;6.580;2023-04-15T17:26:36;12.10;;;10.90;;
60306;SDS011;46155;52.364;6.580;2023-04-15T17:29:01;11.23;;;9.93;;
60306;SDS011;46155;52.364;6.580;2023-04-15T17:31:26;13.33;;;12.17;;
60306;SDS011;46155;52.364;6.580;2023-04-15T17:33:53;13.67;;;12.23;;
60306;SDS011;46155;52.364;6.580;2023-04-15T17:36:19;13.17;;;11.93;;
60306;SDS011;46155;52.364;6.580;2023-04-15T17:38:44;13.57;;;12.57;;
60306;SDS011;46155;52.364;6.580;2023-04-15T17:41:10;14.70;;;13.60;;
60306;SDS011;46155;52.364;6.580;2023-04-15T17:43:35;19.13;;;15.73;;
60306;SDS011;46155;52.364;6.580;2023-04-15T17:46:00;17.87;;;14.30;;
60306;SDS011;46155;52.364;6.580;2023-04-15T17:48:26;24.47;;;14.63;;
60306;SDS011;46155;52.364;6.580;2023-04-15T17:50:51;17.00;;;15.30;;